Time;durP1;ratioP1;P1;durP2;ratioP2;P2;SDS_P1;SDS_P2;PMS_P1;PMS_P2;Temp;Humidity;BMP_temperature;BMP_pressure;BME280_temperature;BME280_humidity;BME280_pressure;Samples;Min_cycle;Max_cycle;Signal;HPM_P1;HPM_P2
2021/03/03 00:02:25;;;;;;;21.52;13.77;;;3.30;99.90;;;;;;5087164;28;20207;-73
2021/03/03 00:04:52;;;;;;;20.20;11.38;;;3.30;99.90;;;;;;5086851;28;20222;-73
2021/03/03 00:07:18;;;;;;;18.45;10.85;;;3.30;99.90;;;;;;5087113;28;20208;-74
2021/03/03 00:09:44;;;;;;;16.88;10.95;;;3.30;99.90;;;;;;5085990;28;20918;-74
2021/03/03 00:12:11;;;;;;;17.02;10.98;;;3.30;99.90;;;;;;5086185;28;20508;-73
2021/03/03 00:14:38;;;;;;;21.10;11.00;;;3.20;99.90;;;;;;5087683;28;20228;-73
2021/03/03 00:17:04;;;;;;;17.88;10.55;;;3.20;99.90;;;;;;5105520;28;20232;-74
2021/03/03 00:19:31;;;;;;;19.80;10.95;;;3.20;99.90;;;;;;5128920;22;20224;-92
2021/03/03 00:49:38;;;;;;;15.63;10.18;;;3.00;99.90;;;;;;5033958;22;20233;-71
2021/03/03 00:52:04;;;;;;;15.77;10.43;;;3.00;99.90;;;;;;5028288;28;20206;-72
2021/03/03 00:54:30;;;;;;;20.40;11.15;;;2.90;99.90;;;;;;5028543;28;20201;-71
2021/03/03 00:56:56;;;;;;;15.00;10.27;;;3.00;99.90;;;;;;5030545;28;20202;-71
2021/03/03 00:59:23;;;;;;;16.85;11.25;;;2.90;99.90;;;;;;5030006;28;20205;-71
2021/03/03 01:01:49;;;;;;;20.42;10.07;;;2.90;99.90;;;;;;5030312;28;20197;-71
2021/03/03 01:04:15;;;;;;;18.48;10.57;;;2.90;99.90;;;;;;5030397;28;20206;-71
2021/03/03 01:06:42;;;;;;;15.85;10.27;;;2.90;99.90;;;;;;5030128;28;20209;-72
2021/03/03 01:09:08;;;;;;;18.70;11.02;;;2.90;99.90;;;;;;5029822;28;20252;-72
2021/03/03 01:11:34;;;;;;;13.52;9.68;;;2.90;99.90;;;;;;5030101;28;20225;-72
2021/03/03 01:14:01;;;;;;;21.77;10.40;;;2.90;99.90;;;;;;5030284;28;20209;-72
2021/03/03 01:16:27;;;;;;;17.55;9.55;;;2.90;99.90;;;;;;5028064;28;20224;-71
2021/03/03 01:18:53;;;;;;;19.33;10.65;;;2.90;99.90;;;;;;5027606;28;20799;-71
2021/03/03 01:21:19;;;;;;;16.95;9.68;;;2.90;99.90;;;;;;5030005;28;20228;-71
2021/03/03 01:23:46;;;;;;;15.40;10.02;;;2.80;99.90;;;;;;5029748;28;20217;-71
2021/03/03 01:26:13;;;;;;;16.10;10.20;;;2.80;99.90;;;;;;5030062;28;20201;-71
2021/03/03 01:28:39;;;;;;;18.25;10.70;;;2.80;99.90;;;;;;5029142;28;20236;-71
2021/03/03 01:31:05;;;;;;;17.60;12.27;;;2.80;99.90;;;;;;5029788;28;20226;-71
2021/03/03 01:33:31;;;;;;;16.40;11.02;;;2.90;99.90;;;;;;5029761;28;20202;-71
2021/03/03 01:35:58;;;;;;;17.02;10.93;;;2.90;99.90;;;;;;5029757;28;20268;-71
2021/03/03 01:38:25;;;;;;;20.08;10.10;;;2.90;99.90;;;;;;5029771;28;20217;-71
2021/03/03 01:40:52;;;;;;;14.82;9.57;;;2.80;99.90;;;;;;5028885;28;20229;-72
2021/03/03 01:43:18;;;;;;;19.15;11.05;;;2.70;99.90;;;;;;5029384;28;20210;-72
2021/03/03 01:45:45;;;;;;;18.95;10.25;;;2.70;99.90;;;;;;5029399;28;20209;-71
2021/03/03 01:48:12;;;;;;;15.45;10.23;;;2.70;99.90;;;;;;5029344;28;20267;-71
2021/03/03 01:50:39;;;;;;;18.20;11.18;;;2.70;99.90;;;;;;5028936;28;20295;-71
2021/03/03 01:53:05;;;;;;;20.20;10.07;;;2.60;99.90;;;;;;5029529;28;20213;-71
2021/03/03 01:55:32;;;;;;;13.57;9.70;;;2.60;99.90;;;;;;5029255;28;20198;-71
2021/03/03 01:57:59;;;;;;;18.30;9.98;;;2.60;99.90;;;;;;5029456;28;20202;-71
2021/03/03 02:00:25;;;;;;;16.98;9.75;;;2.60;99.90;;;;;;5028824;28;20588;-71
2021/03/03 02:02:51;;;;;;;16.10;9.88;;;2.50;99.90;;;;;;5029101;28;20209;-71
2021/03/03 02:05:18;;;;;;;15.30;9.85;;;2.50;99.90;;;;;;5029449;28;20209;-71
2021/03/03 02:07:50;;;;;;;18.40;10.48;;;2.50;99.90;;;;;;5031950;28;20210;-72
2021/03/03 02:10:23;;;;;;;15.00;10.50;;;2.50;99.90;;;;;;5036515;28;20222;-72
2021/03/03 02:12:55;;;;;;;15.02;10.50;;;2.50;99.90;;;;;;5034891;28;20206;-72
2021/03/03 02:15:24;;;;;;;18.83;10.60;;;2.50;99.90;;;;;;5029418;28;20685;-72
2021/03/03 02:17:51;;;;;;;17.75;10.20;;;2.50;99.90;;;;;;5029130;28;20256;-71
2021/03/03 02:20:19;;;;;;;19.30;10.52;;;2.50;99.90;;;;;;5028344;28;20233;-72
2021/03/03 02:22:59;;;;;;;16.92;10.05;;;2.50;99.90;;;;;;5028742;28;20578;-72
2021/03/03 02:25:28;;;;;;;19.60;10.63;;;2.50;99.90;;;;;;5029212;28;20670;-71
2021/03/03 02:27:57;;;;;;;13.95;9.30;;;2.50;99.90;;;;;;5028997;28;20225;-71
2021/03/03 02:30:24;;;;;;;17.33;9.55;;;2.50;99.90;;;;;;5028320;28;20225;-71
2021/03/03 02:32:51;;;;;;;14.48;9.65;;;2.50;99.90;;;;;;5028768;28;20202;-71
2021/03/03 02:35:18;;;;;;;15.02;10.07;;;2.40;99.90;;;;;;5028972;28;20205;-71
2021/03/03 02:37:45;;;;;;;16.88;9.43;;;2.40;99.90;;;;;;5028789;28;20327;-72
2021/03/03 02:40:12;;;;;;;14.73;9.55;;;2.40;99.90;;;;;;5027782;28;20225;-71
2021/03/03 02:42:41;;;;;;;12.23;9.32;;;2.40;99.90;;;;;;5028838;28;20613;-72
2021/03/03 02:45:09;;;;;;;15.50;9.60;;;2.40;99.90;;;;;;5028896;28;20202;-72
2021/03/03 02:47:37;;;;;;;18.70;11.00;;;2.40;99.90;;;;;;5028667;28;20216;-71
2021/03/03 02:50:04;;;;;;;14.82;10.15;;;2.40;99.90;;;;;;5028566;28;20248;-71
2021/03/03 02:52:30;;;;;;;21.73;11.45;;;2.30;99.90;;;;;;5028999;28;20206;-71
2021/03/03 02:54:56;;;;;;;17.42;11.00;;;2.40;99.90;;;;;;5031497;28;20197;-71
2021/03/03 02:57:23;;;;;;;14.82;10.10;;;2.40;99.90;;;;;;5032748;28;20208;-72
2021/03/03 02:59:53;;;;;;;18.48;10.30;;;2.40;99.90;;;;;;5031692;28;20759;-72
2021/03/03 03:02:21;;;;;;;16.33;9.90;;;2.50;99.90;;;;;;5032748;28;20205;-71
2021/03/03 03:04:48;;;;;;;15.68;10.80;;;2.40;99.90;;;;;;5032203;28;20206;-72
2021/03/03 03:07:18;;;;;;;15.68;10.00;;;2.50;99.90;;;;;;5032431;28;20693;-72
2021/03/03 03:09:46;;;;;;;16.77;9.50;;;2.40;99.90;;;;;;5031497;28;20226;-71
2021/03/03 03:12:15;;;;;;;16.33;11.20;;;2.50;99.90;;;;;;5032506;28;20816;-71
2021/03/03 03:14:46;;;;;;;17.95;11.73;;;2.50;99.90;;;;;;5032083;28;20209;-72
2021/03/03 03:17:17;;;;;;;18.25;10.80;;;2.40;99.90;;;;;;5032257;28;20205;-71
2021/03/03 03:19:46;;;;;;;23.10;11.13;;;2.40;99.90;;;;;;5031292;28;20244;-71
2021/03/03 03:22:14;;;;;;;17.45;11.73;;;2.50;99.90;;;;;;5032216;28;20259;-72
2021/03/03 03:24:42;;;;;;;16.40;10.70;;;2.50;99.90;;;;;;5031914;28;20209;-71
2021/03/03 03:27:10;;;;;;;16.63;9.45;;;2.50;99.90;;;;;;5032335;28;20216;-71
2021/03/03 03:29:39;;;;;;;17.55;9.70;;;2.50;99.90;;;;;;5031153;28;20233;-72
2021/03/03 03:32:06;;;;;;;17.98;11.25;;;2.40;99.90;;;;;;5031851;28;20201;-72
2021/03/03 03:34:34;;;;;;;17.80;10.15;;;2.30;99.90;;;;;;5031833;28;20692;-71
2021/03/03 03:37:01;;;;;;;14.85;10.10;;;2.30;99.90;;;;;;5031760;28;20202;-71
2021/03/03 03:39:27;;;;;;;17.17;9.98;;;2.30;99.90;;;;;;5031218;28;20193;-71
2021/03/03 03:41:54;;;;;;;18.08;10.50;;;2.20;99.90;;;;;;5031463;28;20681;-71
2021/03/03 03:44:20;;;;;;;16.65;9.82;;;2.20;99.90;;;;;;5031671;28;20202;-71
2021/03/03 03:46:47;;;;;;;16.75;10.55;;;2.20;99.90;;;;;;5031414;28;20205;-72
2021/03/03 03:49:14;;;;;;;17.92;11.30;;;2.20;99.90;;;;;;5030941;28;20221;-71
2021/03/03 03:51:41;;;;;;;18.98;11.15;;;2.20;99.90;;;;;;5031232;28;20225;-71
2021/03/03 03:54:09;;;;;;;13.98;9.88;;;2.20;99.90;;;;;;5031512;28;20202;-71
2021/03/03 03:56:35;;;;;;;16.08;10.20;;;2.20;99.90;;;;;;5031363;28;20210;-71
2021/03/03 03:59:02;;;;;;;21.00;10.38;;;2.20;99.90;;;;;;5030769;28;20244;-71
2021/03/03 04:01:28;;;;;;;14.18;10.15;;;2.20;99.90;;;;;;5031349;28;20230;-71
2021/03/03 04:03:54;;;;;;;17.05;11.10;;;2.10;99.90;;;;;;5031354;28;20201;-71
2021/03/03 04:06:20;;;;;;;18.40;11.02;;;2.10;99.90;;;;;;5031384;28;20684;-71
2021/03/03 04:08:47;;;;;;;19.63;10.55;;;2.10;99.90;;;;;;5030509;28;20283;-71
2021/03/03 04:11:13;;;;;;;17.67;10.10;;;2.20;99.90;;;;;;5031243;28;20245;-72
2021/03/03 04:13:40;;;;;;;17.35;10.57;;;2.10;99.90;;;;;;5030916;28;20198;-71
2021/03/03 04:16:06;;;;;;;17.08;11.65;;;2.10;99.90;;;;;;5031174;28;20621;-71
2021/03/03 04:18:32;;;;;;;15.32;9.90;;;2.10;99.90;;;;;;5030738;28;20209;-70
2021/03/03 04:20:59;;;;;;;16.85;11.35;;;2.10;99.90;;;;;;5030559;28;20225;-70
2021/03/03 04:23:25;;;;;;;19.58;11.65;;;2.10;99.90;;;;;;5031178;28;20737;-71
2021/03/03 04:25:52;;;;;;;17.40;11.75;;;2.10;99.90;;;;;;5030796;28;20205;-71
2021/03/03 04:28:18;;;;;;;16.90;10.18;;;2.10;99.90;;;;;;5030831;28;20237;-70
2021/03/03 04:30:44;;;;;;;15.88;10.38;;;2.10;99.90;;;;;;5030185;28;20230;-70
2021/03/03 04:33:12;;;;;;;18.55;11.43;;;2.10;99.90;;;;;;5030604;28;20259;-70
2021/03/03 04:35:39;;;;;;;19.33;11.23;;;2.20;99.90;;;;;;5028308;28;20296;-70
2021/03/03 04:38:05;;;;;;;15.85;10.13;;;2.10;99.90;;;;;;5027662;28;20209;-70
2021/03/03 04:40:31;;;;;;;17.83;11.65;;;2.10;99.90;;;;;;5028779;28;20622;-71
2021/03/03 04:42:59;;;;;;;18.08;10.48;;;2.20;99.90;;;;;;5030394;28;20263;-73
2021/03/03 04:45:25;;;;;;;19.90;11.55;;;2.10;99.90;;;;;;5030633;28;20202;-72
2021/03/03 04:47:51;;;;;;;21.60;10.20;;;2.10;99.90;;;;;;5010428;28;20221;-72
2021/03/03 04:50:17;;;;;;;19.42;10.90;;;2.10;99.90;;;;;;5010515;28;20222;-72
2021/03/03 04:52:44;;;;;;;18.42;11.98;;;2.10;99.90;;;;;;5010666;28;20202;-71
2021/03/03 04:55:10;;;;;;;16.13;11.27;;;2.10;99.90;;;;;;5010845;28;20202;-72
2021/03/03 04:57:36;;;;;;;20.70;12.38;;;2.10;99.90;;;;;;5017260;28;20205;-71
2021/03/03 05:00:06;;;;;;;18.80;12.10;;;2.00;99.90;;;;;;5026778;28;21044;-72
2021/03/03 05:02:32;;;;;;;19.73;12.07;;;2.00;99.90;;;;;;5035604;28;21158;-72
2021/03/03 05:04:58;;;;;;;19.63;11.00;;;2.10;99.90;;;;;;5029067;28;20205;-72
2021/03/03 05:07:24;;;;;;;21.42;13.02;;;2.10;99.90;;;;;;5030018;28;20210;-72
2021/03/03 05:09:50;;;;;;;17.90;11.57;;;2.00;99.90;;;;;;5028839;28;20237;-72
2021/03/03 05:12:17;;;;;;;21.38;12.55;;;2.00;99.90;;;;;;5029899;28;20205;-73
2021/03/03 05:14:43;;;;;;;18.48;11.20;;;2.00;99.90;;;;;;5029493;28;20205;-72
2021/03/03 05:17:11;;;;;;;18.55;11.75;;;2.00;99.90;;;;;;5028319;28;20209;-72
2021/03/03 05:19:37;;;;;;;18.30;11.05;;;2.00;99.90;;;;;;5028912;28;20276;-73
2021/03/03 05:22:03;;;;;;;17.98;11.40;;;1.90;99.90;;;;;;5029799;28;20588;-72
2021/03/03 05:24:30;;;;;;;17.75;11.85;;;2.00;99.90;;;;;;5028088;28;20198;-71
2021/03/03 05:26:56;;;;;;;19.83;12.00;;;2.00;99.90;;;;;;5029369;28;20535;-71
2021/03/03 05:29:22;;;;;;;22.48;12.10;;;1.90;99.90;;;;;;5028523;28;20225;-71
2021/03/03 05:31:48;;;;;;;18.48;11.65;;;2.00;99.90;;;;;;5026509;28;20989;-71
2021/03/03 05:34:15;;;;;;;16.08;11.73;;;2.00;99.90;;;;;;5027982;28;20198;-71
2021/03/03 05:36:41;;;;;;;19.05;12.35;;;2.00;99.90;;;;;;5029006;28;20213;-71
2021/03/03 05:39:08;;;;;;;16.75;12.60;;;2.00;99.90;;;;;;5028786;28;20206;-71
2021/03/03 05:41:34;;;;;;;17.98;10.68;;;2.00;99.90;;;;;;5028690;28;20759;-71
2021/03/03 05:44:01;;;;;;;16.52;12.02;;;2.00;99.90;;;;;;5029584;28;20248;-71
2021/03/03 05:46:27;;;;;;;16.55;11.13;;;2.00;99.90;;;;;;5029272;28;20273;-71
2021/03/03 05:48:57;;;;;;;19.13;11.60;;;2.00;99.90;;;;;;5028333;28;20298;-71
2021/03/03 05:51:25;;;;;;;20.13;13.15;;;2.00;99.90;;;;;;5028972;28;20226;-71
2021/03/03 05:53:52;;;;;;;19.02;11.52;;;2.00;99.90;;;;;;5028610;28;20557;-71
2021/03/03 05:56:21;;;;;;;15.95;11.82;;;2.00;99.90;;;;;;5028807;28;20775;-71
2021/03/03 05:58:48;;;;;;;20.50;12.00;;;1.90;99.90;;;;;;5028294;28;20198;-71
2021/03/03 06:01:14;;;;;;;20.23;12.20;;;1.90;99.90;;;;;;5028713;28;20787;-71
2021/03/03 06:03:42;;;;;;;22.90;11.90;;;1.90;99.90;;;;;;5028572;28;20201;-71
2021/03/03 06:06:08;;;;;;;17.63;11.35;;;2.00;99.90;;;;;;5029171;28;20202;-71
2021/03/03 06:08:35;;;;;;;17.80;10.88;;;2.00;99.90;;;;;;5028349;28;20228;-71
2021/03/03 06:11:04;;;;;;;22.42;12.88;;;2.00;99.90;;;;;;5028642;28;20724;-72
2021/03/03 06:13:31;;;;;;;17.33;12.07;;;2.00;99.90;;;;;;5028969;28;20624;-71
2021/03/03 06:15:57;;;;;;;17.92;12.30;;;2.10;99.90;;;;;;5029112;28;20279;-71
2021/03/03 06:18:24;;;;;;;20.80;13.70;;;2.10;99.90;;;;;;5105603;22;20224;-71
2021/03/03 06:20:52;;;;;;;20.25;13.95;;;2.10;99.90;;;;;;5080872;28;20333;-71
2021/03/03 06:23:20;;;;;;;17.55;12.07;;;2.20;99.90;;;;;;5088423;28;20204;-69
2021/03/03 06:25:49;;;;;;;18.35;11.90;;;2.10;99.90;;;;;;5088800;28;20199;-71
2021/03/03 06:28:33;;;;;;;18.02;11.60;;;2.20;99.90;;;;;;5088366;28;20223;-70
2021/03/03 06:31:00;;;;;;;19.35;11.38;;;2.20;99.90;;;;;;5093204;28;20219;-68
2021/03/03 06:33:27;;;;;;;17.65;12.30;;;2.30;99.90;;;;;;5092042;28;20195;-68
2021/03/03 06:35:53;;;;;;;20.65;11.95;;;2.30;99.90;;;;;;5092903;28;20195;-68
2021/03/03 06:38:27;;;;;;;17.55;12.07;;;2.40;99.90;;;;;;5092321;28;20195;-69
2021/03/03 06:40:55;;;;;;;21.02;11.60;;;2.40;99.90;;;;;;5092160;28;20580;-70
2021/03/03 06:43:24;;;;;;;22.90;13.88;;;2.50;99.90;;;;;;5081787;28;20200;-68
2021/03/03 06:45:51;;;;;;;18.67;13.02;;;2.50;99.90;;;;;;5071840;28;20208;-69
2021/03/03 06:48:38;;;;;;;18.58;13.38;;;2.60;99.90;;;;;;5071660;28;20227;-69
2021/03/03 06:51:27;;;;;;;17.85;11.07;;;2.60;99.90;;;;;;5071673;28;20224;-69
2021/03/03 06:53:56;;;;;;;21.35;12.55;;;2.70;99.90;;;;;;5072090;28;20246;-68
2021/03/03 06:56:36;;;;;;;20.00;11.95;;;2.80;99.90;;;;;;5071401;28;20227;-68
2021/03/03 06:59:10;;;;;;;23.88;13.13;;;2.80;99.90;;;;;;5071655;28;20196;-70
2021/03/03 07:01:37;;;;;;;17.23;12.07;;;2.80;99.90;;;;;;5070883;28;20232;-69
2021/03/03 07:04:03;;;;;;;17.40;11.25;;;2.80;99.90;;;;;;5072111;28;20213;-68
2021/03/03 07:06:32;;;;;;;20.73;12.43;;;2.90;99.90;;;;;;5071279;28;20675;-69
2021/03/03 07:09:00;;;;;;;20.73;12.27;;;3.00;99.90;;;;;;5070650;28;20224;-69
2021/03/03 07:11:29;;;;;;;20.75;12.57;;;3.00;99.90;;;;;;5071124;28;20989;-69
2021/03/03 07:13:57;;;;;;;19.17;12.48;;;3.10;99.90;;;;;;5071334;28;20698;-69
2021/03/03 07:16:23;;;;;;;19.67;12.85;;;3.20;99.90;;;;;;5071262;28;20640;-67
2021/03/03 07:18:49;;;;;;;19.95;13.60;;;3.20;99.90;;;;;;5070964;28;20200;-68
2021/03/03 07:21:36;;;;;;;21.35;11.95;;;3.20;99.90;;;;;;5070732;28;20227;-69
2021/03/03 07:24:05;;;;;;;18.88;12.27;;;3.30;99.90;;;;;;5071307;28;20205;-72
2021/03/03 07:26:34;;;;;;;16.67;12.65;;;3.40;99.90;;;;;;5071234;28;20204;-72
2021/03/03 07:29:03;;;;;;;22.27;12.57;;;3.40;99.90;;;;;;5070382;28;20268;-72
2021/03/03 07:31:29;;;;;;;16.00;12.35;;;3.50;99.90;;;;;;5071097;28;20637;-72
2021/03/03 07:33:57;;;;;;;22.67;12.90;;;3.50;99.90;;;;;;5071439;28;20205;-67
2021/03/03 07:36:23;;;;;;;20.90;14.05;;;3.70;99.90;;;;;;5070874;28;20204;-71
2021/03/03 07:38:51;;;;;;;18.60;13.20;;;3.80;99.90;;;;;;5068617;28;20205;-70
2021/03/03 07:41:17;;;;;;;19.98;13.43;;;3.80;99.90;;;;;;5059889;28;20212;-70
2021/03/03 07:43:48;;;;;;;19.80;13.13;;;3.90;99.90;;;;;;5071930;28;20552;-70
2021/03/03 07:46:17;;;;;;;17.00;13.68;;;4.00;99.90;;;;;;5070448;28;20211;-68
2021/03/03 07:48:49;;;;;;;18.63;12.63;;;4.10;99.90;;;;;;5070714;28;20224;-68
2021/03/03 07:51:18;;;;;;;18.30;11.65;;;4.10;99.90;;;;;;5070393;28;20228;-72
2021/03/03 07:53:44;;;;;;;16.42;11.80;;;4.20;99.90;;;;;;5070730;28;20208;-72
2021/03/03 07:56:12;;;;;;;24.23;13.45;;;4.30;99.90;;;;;;5070760;28;20208;-71
2021/03/03 07:58:40;;;;;;;18.85;13.25;;;4.40;99.90;;;;;;5070237;28;20234;-72
2021/03/03 08:01:11;;;;;;;18.35;13.23;;;4.50;99.90;;;;;;5070425;28;20225;-72
2021/03/03 08:03:43;;;;;;;21.50;14.43;;;4.60;99.90;;;;;;5070033;28;20212;-71
2021/03/03 08:06:39;;;;;;;17.60;12.70;;;4.70;99.90;;;;;;5069955;28;20205;-71
2021/03/03 08:09:18;;;;;;;18.90;12.73;;;4.90;99.90;;;;;;5007843;28;20318;-71
2021/03/03 08:12:02;;;;;;;20.90;12.75;;;5.00;99.90;;;;;;5060373;28;20230;-70
2021/03/03 08:14:34;;;;;;;17.95;12.32;;;5.10;99.90;;;;;;5069815;28;20208;-70
2021/03/03 08:17:01;;;;;;;16.63;11.70;;;5.20;99.90;;;;;;5069957;28;20743;-70
2021/03/03 08:19:59;;;;;;;16.85;11.60;;;5.30;99.90;;;;;;5069180;28;20208;-71
2021/03/03 08:22:48;;;;;;;20.05;11.63;;;5.40;99.90;;;;;;5069382;28;20219;-70
2021/03/03 08:25:56;;;;;;;28.25;13.73;;;5.60;99.90;;;;;;5069447;28;20551;-71
2021/03/03 08:28:34;;;;;;;18.48;12.13;;;5.60;99.90;;;;;;5034575;28;20229;-71
2021/03/03 08:31:36;;;;;;;21.77;13.13;;;5.70;99.90;;;;;;5070160;28;20220;-70
2021/03/03 08:34:08;;;;;;;20.88;12.18;;;5.80;99.90;;;;;;5070229;28;20200;-71
2021/03/03 08:36:53;;;;;;;22.33;13.07;;;5.90;99.90;;;;;;5070511;28;20258;-71
2021/03/03 08:39:30;;;;;;;20.17;13.43;;;6.00;99.90;;;;;;5070174;28;20211;-71
2021/03/03 08:41:56;;;;;;;21.83;13.32;;;6.10;99.90;;;;;;5068641;28;20204;-71
2021/03/03 08:44:23;;;;;;;25.75;13.40;;;6.20;99.90;;;;;;5068378;28;20205;-71
2021/03/03 08:46:51;;;;;;;19.90;12.85;;;6.30;99.90;;;;;;5070583;28;20209;-71
2021/03/03 08:49:31;;;;;;;32.92;14.35;;;6.40;99.90;;;;;;5069287;28;21069;-72
2021/03/03 08:52:09;;;;;;;21.38;13.15;;;6.60;99.90;;;;;;5069933;28;20196;-72
2021/03/03 08:54:46;;;;;;;23.98;14.20;;;6.70;99.90;;;;;;5069590;28;20203;-71
2021/03/03 08:57:33;;;;;;;26.20;15.80;;;6.70;99.90;;;;;;5069801;28;20207;-71
2021/03/03 08:59:59;;;;;;;23.95;14.57;;;6.80;99.90;;;;;;5068405;28;20293;-71
2021/03/03 09:02:37;;;;;;;23.08;13.80;;;6.90;99.90;;;;;;5069522;28;20207;-72
2021/03/03 09:05:09;;;;;;;21.08;12.75;;;7.00;99.90;;;;;;5069690;28;20266;-71
2021/03/03 09:07:36;;;;;;;17.88;13.18;;;7.00;99.90;;;;;;5069844;28;20204;-71
2021/03/03 09:10:06;;;;;;;18.17;14.30;;;7.20;99.90;;;;;;5069192;28;21020;-71
2021/03/03 09:12:33;;;;;;;20.58;13.25;;;7.30;99.90;;;;;;5065852;28;20212;-71
2021/03/03 09:15:01;;;;;;;23.83;14.80;;;7.40;99.90;;;;;;5069853;28;20212;-71
2021/03/03 09:17:29;;;;;;;23.73;14.40;;;7.50;99.90;;;;;;5070107;28;20215;-70
2021/03/03 09:19:56;;;;;;;19.70;14.90;;;7.60;99.90;;;;;;5068907;28;20619;-71
2021/03/03 09:22:26;;;;;;;25.38;14.15;;;7.70;99.90;;;;;;5068769;28;20204;-71
2021/03/03 09:24:54;;;;;;;24.58;13.90;;;7.70;99.90;;;;;;5069720;28;20197;-70
2021/03/03 09:27:22;;;;;;;17.55;13.30;;;7.80;99.90;;;;;;5069383;28;20242;-71
2021/03/03 09:29:49;;;;;;;19.23;13.55;;;7.80;99.90;;;;;;5068656;28;20232;-72
2021/03/03 09:32:20;;;;;;;26.63;13.82;;;7.90;99.90;;;;;;5069128;28;20671;-71
2021/03/03 09:34:47;;;;;;;21.70;14.88;;;8.00;99.90;;;;;;5069366;28;20207;-72
2021/03/03 09:37:14;;;;;;;22.88;13.68;;;8.10;99.90;;;;;;5068940;28;20636;-71
2021/03/03 09:39:40;;;;;;;21.58;13.93;;;8.20;99.90;;;;;;5068822;28;20212;-71
2021/03/03 09:42:09;;;;;;;25.23;13.00;;;8.30;99.90;;;;;;5069717;28;20200;-71
2021/03/03 09:44:52;;;;;;;20.60;14.00;;;8.40;99.90;;;;;;5069708;28;20204;-71
2021/03/03 09:47:23;;;;;;;19.90;13.57;;;8.50;99.90;;;;;;5068585;28;20204;-71
2021/03/03 09:49:49;;;;;;;22.17;15.20;;;8.60;99.90;;;;;;5065270;28;20228;-71
2021/03/03 09:52:16;;;;;;;25.73;15.10;;;8.70;99.90;;;;;;5068780;28;20200;-70
2021/03/03 09:54:42;;;;;;;19.67;13.15;;;8.90;99.90;;;;;;5069030;28;20201;-72
2021/03/03 09:57:11;;;;;;;17.52;13.65;;;9.10;99.90;;;;;;5068361;28;20671;-71
2021/03/03 09:59:40;;;;;;;27.38;15.25;;;9.20;99.90;;;;;;5068286;28;20613;-72
2021/03/03 10:02:07;;;;;;;18.25;13.77;;;9.40;99.90;;;;;;5068651;28;20260;-71
2021/03/03 10:04:37;;;;;;;20.42;12.65;;;9.60;99.90;;;;;;5068719;28;20581;-71
2021/03/03 10:07:09;;;;;;;19.85;13.77;;;9.70;99.90;;;;;;5069245;28;20210;-71
2021/03/03 10:09:38;;;;;;;20.48;14.63;;;9.90;99.90;;;;;;5068356;28;20227;-71
2021/03/03 10:12:07;;;;;;;19.80;14.13;;;10.10;99.90;;;;;;5068125;28;20205;-71
2021/03/03 10:14:34;;;;;;;27.30;15.70;;;10.20;99.90;;;;;;5053554;28;20258;-71
2021/03/03 10:17:02;;;;;;;22.70;14.32;;;10.30;99.90;;;;;;5069189;28;20249;-71
2021/03/03 10:19:29;;;;;;;29.25;15.13;;;10.20;99.90;;;;;;5060972;28;20505;-71
2021/03/03 10:21:55;;;;;;;25.63;14.43;;;10.20;99.90;;;;;;5063289;28;20682;-71
2021/03/03 10:24:22;;;;;;;24.10;14.45;;;10.20;99.90;;;;;;5060599;28;20562;-71
2021/03/03 10:26:52;;;;;;;17.70;13.70;;;10.20;99.90;;;;;;5068394;28;20208;-71
2021/03/03 10:29:35;;;;;;;25.98;15.40;;;10.30;99.90;;;;;;5067598;28;20303;-71
2021/03/03 10:32:10;;;;;;;24.25;14.57;;;10.50;99.90;;;;;;5067486;28;20202;-71
2021/03/03 10:34:36;;;;;;;23.02;15.10;;;10.50;99.90;;;;;;5067931;28;20208;-71
2021/03/03 10:37:03;;;;;;;21.08;14.55;;;10.60;99.90;;;;;;5068817;28;20200;-71
2021/03/03 10:39:30;;;;;;;22.02;14.07;;;10.70;99.90;;;;;;5062930;28;20384;-71
2021/03/03 10:42:03;;;;;;;23.40;14.23;;;10.90;99.90;;;;;;5063345;28;20242;-72
2021/03/03 10:44:41;;;;;;;24.35;16.20;;;11.00;99.90;;;;;;5057039;28;20208;-71
2021/03/03 10:47:07;;;;;;;28.33;17.65;;;11.20;99.90;;;;;;5077350;28;20199;-71
2021/03/03 10:49:38;;;;;;;27.63;15.73;;;11.40;99.90;;;;;;5088160;28;20223;-71
2021/03/03 10:52:17;;;;;;;20.50;15.43;;;11.80;99.90;;;;;;5086016;28;20666;-71
2021/03/03 10:54:44;;;;;;;24.13;13.97;;;12.10;99.90;;;;;;5067487;28;20651;-71
2021/03/03 10:57:10;;;;;;;24.27;16.45;;;12.40;99.90;;;;;;5066456;28;20485;-71
2021/03/03 10:59:38;;;;;;;22.80;13.40;;;12.70;99.90;;;;;;5066895;28;20251;-74
2021/03/03 11:02:06;;;;;;;21.88;14.30;;;12.70;99.90;;;;;;5068243;28;20226;-71
2021/03/03 11:04:44;;;;;;;26.50;14.30;;;12.90;99.90;;;;;;5067421;28;20580;-71
2021/03/03 11:07:12;;;;;;;21.50;15.00;;;13.00;99.80;;;;;;5066797;28;20469;-71
2021/03/03 11:09:38;;;;;;;18.70;14.13;;;13.00;99.70;;;;;;5064908;28;20569;-71
2021/03/03 11:12:06;;;;;;;22.50;14.33;;;13.10;99.90;;;;;;5067015;28;20460;-71
2021/03/03 11:14:33;;;;;;;23.73;13.73;;;13.20;99.20;;;;;;5066846;28;20454;-71
2021/03/03 11:17:01;;;;;;;22.33;12.83;;;13.10;99.40;;;;;;5069361;28;20462;-71
2021/03/03 11:19:29;;;;;;;23.83;14.33;;;13.10;99.30;;;;;;5070768;28;20467;-71
2021/03/03 11:21:56;;;;;;;28.07;14.87;;;13.10;99.40;;;;;;5072207;28;20482;-71
2021/03/03 11:24:24;;;;;;;15.83;14.13;;;13.20;99.50;;;;;;5071785;28;20466;-72
2021/03/03 11:26:50;;;;;;;23.53;14.60;;;13.30;99.20;;;;;;5071860;28;20462;-72
2021/03/03 11:29:17;;;;;;;18.80;14.13;;;13.30;99.00;;;;;;5071188;28;20478;-71
2021/03/03 11:31:44;;;;;;;19.43;14.70;;;13.30;99.00;;;;;;5073294;28;20571;-72
2021/03/03 11:34:11;;;;;;;23.27;15.67;;;13.20;98.80;;;;;;5091656;28;20466;-71
2021/03/03 11:36:38;;;;;;;17.50;14.10;;;13.30;99.10;;;;;;5091997;28;20479;-71
2021/03/03 11:39:06;;;;;;;20.03;14.43;;;13.50;99.20;;;;;;5090977;28;20808;-71
2021/03/03 11:41:32;;;;;;;22.70;15.10;;;13.60;98.60;;;;;;5091198;28;20478;-71
2021/03/03 11:43:58;;;;;;;20.13;14.20;;;13.80;98.30;;;;;;5091184;28;20966;-71
2021/03/03 11:46:24;;;;;;;24.03;14.53;;;14.00;98.10;;;;;;5091088;28;20465;-71
2021/03/03 11:48:51;;;;;;;24.43;15.00;;;14.10;98.20;;;;;;5090549;28;20485;-72
2021/03/03 11:51:17;;;;;;;24.87;16.03;;;14.00;97.90;;;;;;5090929;28;20488;-71
2021/03/03 11:53:44;;;;;;;19.73;14.20;;;13.90;97.70;;;;;;5091355;28;20877;-71
2021/03/03 11:56:10;;;;;;;20.23;14.97;;;13.90;97.60;;;;;;5091174;28;20461;-71
2021/03/03 11:58:36;;;;;;;21.87;15.73;;;13.90;97.70;;;;;;5066285;28;20466;-71
2021/03/03 12:01:04;;;;;;;23.20;14.33;;;14.00;97.60;;;;;;5064888;28;20849;-71
2021/03/03 12:03:30;;;;;;;21.83;15.13;;;14.00;97.60;;;;;;5069856;28;20462;-71
2021/03/03 12:05:56;;;;;;;17.97;14.07;;;14.10;97.80;;;;;;5070606;28;20466;-71
2021/03/03 12:08:22;;;;;;;22.07;15.97;;;14.00;97.70;;;;;;5073676;28;20461;-72
2021/03/03 12:10:49;;;;;;;15.87;14.03;;;14.10;97.50;;;;;;5072305;28;20516;-71
2021/03/03 12:13:16;;;;;;;19.50;14.53;;;14.10;97.60;;;;;;5070487;28;20474;-72
2021/03/03 12:15:42;;;;;;;17.00;14.57;;;14.20;97.60;;;;;;5073537;28;20454;-71
2021/03/03 12:18:08;;;;;;;21.93;15.90;;;14.10;97.20;;;;;;5069551;28;20462;-71
2021/03/03 12:20:35;;;;;;;21.87;16.57;;;14.10;97.00;;;;;;5069727;28;20839;-72
2021/03/03 12:23:01;;;;;;;21.30;15.07;;;14.20;97.30;;;;;;5069998;28;20470;-72
2021/03/03 12:25:28;;;;;;;22.03;16.73;;;14.10;97.30;;;;;;5070100;28;20470;-71
2021/03/03 12:27:56;;;;;;;21.30;15.00;;;14.20;97.40;;;;;;5070230;28;20463;-71
2021/03/03 12:30:23;;;;;;;18.93;14.13;;;14.10;97.00;;;;;;5068946;28;20497;-71
2021/03/03 12:32:50;;;;;;;26.93;15.47;;;14.10;97.10;;;;;;5069832;28;20459;-71
2021/03/03 12:35:16;;;;;;;19.87;14.70;;;14.00;97.10;;;;;;5068645;28;20459;-72
2021/03/03 12:37:42;;;;;;;23.00;15.13;;;13.90;97.20;;;;;;5070154;28;20835;-71
2021/03/03 12:40:09;;;;;;;21.43;14.67;;;13.90;97.00;;;;;;5069291;28;20561;-71
2021/03/03 12:42:35;;;;;;;19.43;15.90;;;13.90;96.70;;;;;;5069503;28;20957;-72
2021/03/03 12:45:04;;;;;;;18.50;14.67;;;13.90;97.00;;;;;;5070016;28;20485;-72
2021/03/03 12:47:31;;;;;;;20.83;15.53;;;14.00;97.00;;;;;;5069676;28;20466;-71
2021/03/03 12:49:57;;;;;;;21.40;15.43;;;14.00;96.60;;;;;;5068674;28;20493;-71
2021/03/03 12:52:23;;;;;;;20.20;15.10;;;14.00;96.80;;;;;;5069722;28;20523;-71
2021/03/03 12:54:49;;;;;;;17.07;13.50;;;14.10;96.80;;;;;;5070144;28;20872;-71
2021/03/03 12:57:15;;;;;;;19.93;14.50;;;14.10;96.50;;;;;;5068959;28;20508;-71
2021/03/03 12:59:41;;;;;;;19.67;14.47;;;14.20;96.60;;;;;;5068014;28;21037;-72
2021/03/03 13:02:08;;;;;;;22.57;14.10;;;14.30;96.60;;;;;;5068760;28;20467;-71
2021/03/03 13:04:35;;;;;;;19.70;13.73;;;14.30;96.40;;;;;;5069608;28;20600;-71
2021/03/03 13:07:01;;;;;;;18.93;14.63;;;14.40;96.20;;;;;;5069682;28;20458;-71
2021/03/03 13:09:27;;;;;;;20.23;13.60;;;14.50;96.20;;;;;;5068909;28;20486;-71
2021/03/03 13:11:53;;;;;;;23.17;14.60;;;14.60;96.00;;;;;;5064379;28;20896;-72